createdAt,value
2022-12-18T00:01:41.528Z,98656.28
2022-12-18T00:03:49.741Z,98650.97
2022-12-18T00:05:57.754Z,98659.09
2022-12-18T00:08:09.043Z,98662.78
2022-12-18T00:10:20.004Z,98662.63
2022-12-18T00:12:30.727Z,98672.06
2022-12-18T00:14:38.797Z,98671.22
2022-12-18T00:16:50.929Z,98661.31
2022-12-18T00:19:03.768Z,98655.28
2022-12-18T00:21:13.977Z,98658.13
2022-12-18T00:23:22.125Z,98662.91
2022-12-18T00:25:30.538Z,98664.47
2022-12-18T00:27:41.322Z,98676.16
2022-12-18T00:29:49.440Z,98673.59
2022-12-18T00:31:57.297Z,98671.06
2022-12-18T00:34:06.369Z,98671.72
2022-12-18T00:36:16.193Z,98664.56
2022-12-18T00:38:24.699Z,98660.44
2022-12-18T00:40:36.385Z,98668.78
2022-12-18T00:42:59.456Z,98668.34
2022-12-18T00:45:12.540Z,98675.44
2022-12-18T00:47:21.464Z,98670.47
2022-12-18T00:49:29.462Z,98681.75
2022-12-18T00:51:37.678Z,98688.50
2022-12-18T00:53:45.626Z,98686.25
2022-12-18T00:55:53.595Z,98681.34
2022-12-18T00:58:04.267Z,98681.47
2022-12-18T01:00:15.017Z,98678.91
2022-12-18T01:02:23.420Z,98681.09
2022-12-18T01:04:31.570Z,98684.59
2022-12-18T01:06:39.827Z,98681.53
2022-12-18T01:08:48.551Z,98688.09
2022-12-18T01:10:56.651Z,98681.50
2022-12-18T01:13:07.638Z,98679.25
2022-12-18T01:15:17.996Z,98677.66
2022-12-18T01:17:26.074Z,98679.94
2022-12-18T01:19:35.042Z,98679.25
2022-12-18T01:21:43.039Z,98671.44
2022-12-18T01:23:55.004Z,98675.31
2022-12-18T01:26:09.565Z,98686.03
2022-12-18T01:28:20.213Z,98692.47
2022-12-18T01:30:28.003Z,98688.81
2022-12-18T01:32:36.119Z,98696.75
2022-12-18T01:34:44.056Z,98699.41
2022-12-18T01:36:53.267Z,98700.34
2022-12-18T01:39:03.186Z,98705.72
2022-12-18T01:41:12.616Z,98699.66
2022-12-18T01:43:23.179Z,98693.66
2022-12-18T01:45:32.289Z,98700.69
2022-12-18T01:47:43.486Z,98699.16
2022-12-18T01:49:54.911Z,98698.41
2022-12-18T01:52:02.867Z,98704.53
2022-12-18T01:54:10.891Z,98715.41
2022-12-18T01:56:20.324Z,98711.72
2022-12-18T01:58:36.641Z,98714.91
2022-12-18T02:00:45.109Z,98708.16
2022-12-18T02:02:55.884Z,98706.53
2022-12-18T02:05:04.963Z,98698.41
2022-12-18T02:07:20.093Z,98698.34
2022-12-18T02:09:52.122Z,98697.16
2022-12-18T02:12:09.563Z,98695.06
2022-12-18T02:14:48.257Z,98699.09
2022-12-18T02:17:03.728Z,98702.19
2022-12-18T02:19:30.815Z,98698.75
2022-12-18T02:21:51.307Z,98705.81
2022-12-18T02:24:15.993Z,98700.91
2022-12-18T02:26:34.649Z,98706.66
2022-12-18T02:28:46.520Z,98704.31
2022-12-18T02:30:58.580Z,98710.00
2022-12-18T02:33:10.405Z,98707.28
2022-12-18T02:35:26.027Z,98714.81
2022-12-18T02:37:38.457Z,98719.63
2022-12-18T02:39:50.483Z,98726.34
2022-12-18T02:42:03.440Z,98724.84
2022-12-18T02:44:14.410Z,98728.22
2022-12-18T02:46:32.681Z,98732.00
2022-12-18T02:48:44.338Z,98731.94
2022-12-18T02:51:03.584Z,98735.69
2022-12-18T02:53:21.079Z,98742.34
2022-12-18T02:55:45.934Z,98738.09
2022-12-18T02:58:07.262Z,98745.75
2022-12-18T03:00:23.620Z,98751.50
2022-12-18T03:02:39.976Z,98750.31
2022-12-18T03:04:55.167Z,98740.84
2022-12-18T03:07:09.556Z,98740.09
2022-12-18T03:09:21.907Z,98740.19
2022-12-18T03:11:45.636Z,98737.69
2022-12-18T03:14:01.091Z,98725.53
2022-12-18T03:16:12.135Z,98731.84
2022-12-18T03:18:24.465Z,98737.84
2022-12-18T03:20:36.728Z,98745.09
2022-12-18T03:22:48.994Z,98739.91
2022-12-18T03:25:00.445Z,98738.41
2022-12-18T03:27:13.065Z,98747.75
2022-12-18T03:29:31.899Z,98749.59
2022-12-18T03:31:44.788Z,98753.66
2022-12-18T03:33:58.928Z,98756.59
2022-12-18T03:36:15.470Z,98751.38
2022-12-18T03:38:23.633Z,98755.72
2022-12-18T03:40:43.581Z,98759.13
2022-12-18T03:42:56.080Z,98751.38
2022-12-18T03:45:15.393Z,98747.00
2022-12-18T03:47:31.735Z,98743.38
2022-12-18T03:49:50.899Z,98740.16
2022-12-18T03:52:07.404Z,98738.88
2022-12-18T03:54:16.989Z,98735.88
2022-12-18T03:56:36.594Z,98743.38
2022-12-18T03:58:56.028Z,98746.13
2022-12-18T04:01:16.100Z,98746.06
2022-12-18T04:03:26.992Z,98746.06
2022-12-18T04:05:38.682Z,98754.31
2022-12-18T04:07:51.080Z,98749.75
2022-12-18T04:10:03.578Z,98746.22
2022-12-18T04:12:13.217Z,98747.09
2022-12-18T04:14:22.113Z,98742.00
2022-12-18T04:16:37.347Z,98740.50
2022-12-18T04:18:47.492Z,98746.28
2022-12-18T04:20:56.353Z,98729.63
2022-12-18T04:23:04.548Z,98738.09
2022-12-18T04:25:15.961Z,98748.13
2022-12-18T04:27:36.154Z,98730.13
2022-12-18T04:29:46.374Z,98739.41
2022-12-18T04:31:56.860Z,98735.94
2022-12-18T04:34:07.330Z,98743.53
2022-12-18T04:36:29.862Z,98753.31
2022-12-18T04:38:37.694Z,98755.00
2022-12-18T04:40:53.132Z,98769.16
2022-12-18T04:43:07.429Z,98773.22
2022-12-18T04:45:15.432Z,98777.53
2022-12-18T04:47:25.995Z,98779.47
2022-12-18T04:49:33.960Z,98772.38
2022-12-18T04:51:41.769Z,98779.88
2022-12-18T04:53:49.690Z,98770.03
2022-12-18T04:56:06.897Z,98760.72
2022-12-18T04:58:14.787Z,98766.00
2022-12-18T05:00:23.066Z,98756.38
2022-12-18T05:02:33.748Z,98752.38
2022-12-18T05:04:41.757Z,98746.28
2022-12-18T05:06:49.724Z,98741.72
2022-12-18T05:08:57.764Z,98742.06
2022-12-18T05:11:08.716Z,98741.59
2022-12-18T05:13:16.607Z,98743.91
2022-12-18T05:15:24.623Z,98747.50
2022-12-18T05:17:35.173Z,98744.25
2022-12-18T05:19:43.107Z,98750.13
2022-12-18T05:21:53.742Z,98756.72
2022-12-18T05:24:01.888Z,98762.72
2022-12-18T05:26:10.752Z,98764.41
2022-12-18T05:28:18.811Z,98764.00
2022-12-18T05:30:26.759Z,98764.66
2022-12-18T05:32:37.290Z,98764.78
2022-12-18T05:34:45.424Z,98768.59
2022-12-18T05:36:53.652Z,98774.56
2022-12-18T05:39:01.620Z,98771.63
2022-12-18T05:41:11.198Z,98767.41
2022-12-18T05:43:45.089Z,98771.88
2022-12-18T05:45:53.999Z,98772.31
2022-12-18T05:48:06.314Z,98769.47
2022-12-18T05:50:14.293Z,98774.78
2022-12-18T05:52:22.117Z,98771.22
2022-12-18T05:54:32.139Z,98771.06
2022-12-18T05:56:44.144Z,98768.19
2022-12-18T05:58:55.754Z,98765.13
2022-12-18T06:01:12.517Z,98772.53
2022-12-18T06:03:23.345Z,98768.50
2022-12-18T06:05:31.807Z,98777.25
2022-12-18T06:07:39.709Z,98771.28
2022-12-18T06:09:48.034Z,98770.16
2022-12-18T06:11:56.550Z,98768.16
2022-12-18T06:14:04.602Z,98765.09
2022-12-18T06:16:15.285Z,98771.66
2022-12-18T06:18:26.143Z,98779.47
2022-12-18T06:20:34.219Z,98777.06
2022-12-18T06:22:45.147Z,98784.31
2022-12-18T06:24:53.332Z,98786.06
2022-12-18T06:27:01.164Z,98774.53
2022-12-18T06:29:09.244Z,98771.56
2022-12-18T06:31:17.411Z,98766.47
2022-12-18T06:33:30.865Z,98767.53
2022-12-18T06:35:38.816Z,98787.19
2022-12-18T06:37:46.953Z,98791.03
2022-12-18T06:39:54.899Z,98791.63
2022-12-18T06:42:02.682Z,98790.53
2022-12-18T06:44:10.576Z,98798.06
2022-12-18T06:46:19.447Z,98793.28
2022-12-18T06:48:30.077Z,98793.28
2022-12-18T06:50:38.348Z,98797.19
2022-12-18T06:52:51.856Z,98795.75
2022-12-18T06:54:59.683Z,98798.53
2022-12-18T06:57:07.626Z,98802.38
2022-12-18T06:59:16.682Z,98795.25
2022-12-18T07:01:25.267Z,98796.00
2022-12-18T07:03:36.160Z,98801.44
2022-12-18T07:05:44.696Z,98807.25
2022-12-18T07:07:52.480Z,98805.88
2022-12-18T07:10:00.727Z,98808.41
2022-12-18T07:12:10.092Z,98813.16
2022-12-18T07:14:17.967Z,98814.03
2022-12-18T07:16:26.405Z,98831.56
2022-12-18T07:18:37.100Z,98825.00
2022-12-18T07:20:46.912Z,98828.59
2022-12-18T07:22:56.436Z,98834.88
2022-12-18T07:25:04.374Z,98835.69
2022-12-18T07:27:12.270Z,98828.16
2022-12-18T07:29:20.935Z,98838.78
2022-12-18T07:31:29.966Z,98829.25
2022-12-18T07:33:40.885Z,98845.03
2022-12-18T07:35:49.214Z,98843.88
2022-12-18T07:37:57.133Z,98833.25
2022-12-18T07:40:14.370Z,98844.19
2022-12-18T07:42:34.761Z,98844.31
2022-12-18T07:44:42.625Z,98843.28
2022-12-18T07:46:50.427Z,98842.22
2022-12-18T07:49:00.781Z,98844.47
2022-12-18T07:51:12.779Z,98843.53
2022-12-18T07:53:20.673Z,98849.88
2022-12-18T07:55:28.511Z,98854.81
2022-12-18T07:57:57.624Z,98841.31
2022-12-18T08:00:05.757Z,98848.09
2022-12-18T08:02:20.270Z,98853.16
2022-12-18T08:04:38.565Z,98859.19
2022-12-18T08:06:48.256Z,98856.88
2022-12-18T08:08:57.303Z,98856.94
2022-12-18T08:11:05.544Z,98855.69
2022-12-18T08:13:13.625Z,98855.94
2022-12-18T08:15:27.261Z,98855.03
2022-12-18T08:17:35.391Z,98859.69
2022-12-18T08:19:46.627Z,98853.34
2022-12-18T08:21:54.971Z,98852.38
2022-12-18T08:24:04.871Z,98849.13
2022-12-18T08:26:13.985Z,98857.47
2022-12-18T08:28:22.002Z,98844.84
2022-12-18T08:30:29.841Z,98848.50
2022-12-18T08:32:38.553Z,98847.22
2022-12-18T08:34:49.981Z,98850.41
2022-12-18T08:36:58.051Z,98847.06
2022-12-18T08:39:06.766Z,98844.66
2022-12-18T08:41:16.921Z,98843.88
2022-12-18T08:43:37.781Z,98847.06
2022-12-18T08:45:46.348Z,98844.75
2022-12-18T08:47:54.580Z,98853.81
2022-12-18T08:50:05.986Z,98844.84
2022-12-18T08:52:16.865Z,98855.00
2022-12-18T08:54:26.385Z,98851.38
2022-12-18T08:56:35.881Z,98858.22
2022-12-18T08:58:44.937Z,98860.28
2022-12-18T09:00:52.746Z,98855.22
2022-12-18T09:03:00.812Z,98853.34
2022-12-18T09:05:11.754Z,98843.13
2022-12-18T09:07:19.877Z,98841.53
2022-12-18T09:09:28.068Z,98842.91
2022-12-18T09:11:37.486Z,98840.25
2022-12-18T09:13:45.347Z,98833.97
2022-12-18T09:15:55.564Z,98831.94
2022-12-18T09:18:03.802Z,98826.88
2022-12-18T09:20:15.127Z,98830.09
2022-12-18T09:22:22.979Z,98827.84
2022-12-18T09:25:03.065Z,98829.97
2022-12-18T09:27:11.471Z,98826.72
2022-12-18T09:29:21.693Z,98830.66
2022-12-18T09:31:29.769Z,98837.22
2022-12-18T09:33:38.099Z,98835.28
2022-12-18T09:35:49.797Z,98830.72
2022-12-18T09:37:57.555Z,98826.13
2022-12-18T09:40:07.857Z,98831.38
2022-12-18T09:42:23.807Z,98834.44
2022-12-18T09:44:37.752Z,98824.34
2022-12-18T09:46:54.686Z,98821.19
2022-12-18T09:49:06.076Z,98826.09
2022-12-18T09:51:20.636Z,98826.50
2022-12-18T09:53:32.139Z,98827.69
2022-12-18T09:55:44.100Z,98826.91
2022-12-18T09:57:57.410Z,98821.53
2022-12-18T10:00:13.179Z,98816.25
2022-12-18T10:02:25.922Z,98810.94
2022-12-18T10:04:37.696Z,98802.13
2022-12-18T10:06:54.184Z,98805.81
2022-12-18T10:09:07.951Z,98804.91
2022-12-18T10:11:44.843Z,98804.56
2022-12-18T10:14:00.400Z,98799.66
2022-12-18T10:16:17.254Z,98794.34
2022-12-18T10:18:39.793Z,98802.56
2022-12-18T10:20:52.576Z,98801.84
2022-12-18T10:23:14.138Z,98803.63
2022-12-18T10:25:27.859Z,98806.53
2022-12-18T10:27:36.006Z,98808.50
2022-12-18T10:29:44.928Z,98807.59
2022-12-18T10:31:52.996Z,98810.81
2022-12-18T10:34:01.048Z,98819.00
2022-12-18T10:36:11.840Z,98812.25
2022-12-18T10:38:31.296Z,98802.78
2022-12-18T10:40:54.233Z,98793.41
2022-12-18T10:43:14.451Z,98800.59
2022-12-18T10:45:22.394Z,98803.78
2022-12-18T10:47:30.525Z,98813.41
2022-12-18T10:49:39.334Z,98816.44
2022-12-18T10:51:47.400Z,98816.66
2022-12-18T10:54:03.248Z,98814.13
2022-12-18T10:56:15.639Z,98816.03
2022-12-18T10:58:30.101Z,98805.94
2022-12-18T11:00:38.400Z,98817.00
2022-12-18T11:02:46.459Z,98812.25
2022-12-18T11:04:56.052Z,98816.72
2022-12-18T11:07:05.894Z,98815.69
2022-12-18T11:09:24.835Z,98814.28
2022-12-18T11:11:33.949Z,98808.88
2022-12-18T11:13:42.282Z,98812.59
2022-12-18T11:15:50.932Z,98803.97
2022-12-18T11:18:00.528Z,98800.50
2022-12-18T11:20:23.650Z,98796.47
2022-12-18T11:22:33.291Z,98791.34
2022-12-18T11:24:49.900Z,98791.53
2022-12-18T11:27:10.724Z,98776.81
2022-12-18T11:29:22.406Z,98779.44
2022-12-18T11:31:32.897Z,98775.06
2022-12-18T11:33:58.372Z,98764.06
2022-12-18T11:36:13.524Z,98764.88
2022-12-18T11:38:30.077Z,98762.19
2022-12-18T11:40:44.326Z,98768.16
2022-12-18T11:43:02.141Z,98769.06
2022-12-18T11:45:31.731Z,98755.34
2022-12-18T11:47:47.995Z,98754.69
2022-12-18T11:49:56.686Z,98754.81
2022-12-18T11:52:10.992Z,98749.69
2022-12-18T11:54:20.150Z,98744.53
2022-12-18T11:56:48.090Z,98742.81
2022-12-18T11:59:06.438Z,98745.59
2022-12-18T12:01:22.579Z,98750.06
2022-12-18T12:03:50.987Z,98745.63
2022-12-18T12:06:15.685Z,98748.38
2022-12-18T12:08:35.178Z,98739.72
2022-12-18T12:10:56.450Z,98738.16
2022-12-18T12:13:23.316Z,98734.69
2022-12-18T12:15:43.780Z,98726.88
2022-12-18T12:17:58.358Z,98723.47
2022-12-18T12:20:15.371Z,98725.97
2022-12-18T12:22:31.731Z,98731.25
2022-12-18T12:24:55.606Z,98727.81
2022-12-18T12:27:13.654Z,98721.78
2022-12-18T12:29:37.944Z,98716.56
2022-12-18T12:32:02.433Z,98718.34
2022-12-18T12:34:19.761Z,98729.59
2022-12-18T12:36:40.465Z,98725.25
2022-12-18T12:38:57.859Z,98719.22
2022-12-18T12:41:30.469Z,98714.94
2022-12-18T12:43:49.495Z,98717.56
2022-12-18T12:46:07.593Z,98722.78
2022-12-18T12:48:25.490Z,98723.66
2022-12-18T12:50:38.134Z,98718.47
2022-12-18T12:52:49.832Z,98714.97
2022-12-18T12:54:58.607Z,98712.38
2022-12-18T12:57:13.068Z,98721.94
2022-12-18T12:59:36.589Z,98719.38
2022-12-18T13:01:59.177Z,98723.69
2022-12-18T13:04:19.452Z,98724.56
2022-12-18T13:06:44.549Z,98731.53
2022-12-18T13:08:59.048Z,98731.53
2022-12-18T13:11:19.807Z,98741.94
2022-12-18T13:13:28.195Z,98732.38
2022-12-18T13:15:42.066Z,98736.72
2022-12-18T13:17:53.072Z,98736.72
2022-12-18T13:20:10.994Z,98731.50
2022-12-18T13:22:29.864Z,98729.78
2022-12-18T13:24:38.038Z,98741.94
2022-12-18T13:26:46.175Z,98740.22
2022-12-18T13:28:56.891Z,98747.16
2022-12-18T13:31:06.147Z,98745.41
2022-12-18T13:36:31.421Z,98726.31
2022-12-18T13:38:40.845Z,98731.50
2022-12-18T13:41:00.226Z,98730.66
2022-12-18T13:43:24.945Z,98723.69
2022-12-18T13:45:49.345Z,98721.97
2022-12-18T13:47:57.743Z,98722.84
2022-12-18T13:50:19.612Z,98715.88
2022-12-18T13:52:31.714Z,98709.81
2022-12-18T13:54:41.327Z,98717.59
2022-12-18T13:56:53.251Z,98717.59
2022-12-18T13:59:17.248Z,98716.75
2022-12-18T14:01:29.931Z,98718.47
2022-12-18T14:03:37.997Z,98719.34
2022-12-18T14:05:49.797Z,98718.47
2022-12-18T14:08:02.761Z,98715.88
2022-12-18T14:10:42.249Z,98718.47
2022-12-18T14:13:03.281Z,98718.47
2022-12-18T14:15:25.975Z,98715.88
2022-12-18T14:17:35.754Z,98718.50
2022-12-18T14:19:49.285Z,98728.00
2022-12-18T14:21:59.955Z,98727.13
2022-12-18T14:24:19.506Z,98723.63
2022-12-18T14:26:30.604Z,98723.59
2022-12-18T14:28:49.698Z,98727.00
2022-12-18T14:31:01.242Z,98732.22
2022-12-18T14:33:16.243Z,98724.44
2022-12-18T14:35:25.468Z,98727.88
2022-12-18T14:37:37.844Z,98735.63
2022-12-18T14:39:57.692Z,98731.13
2022-12-18T14:42:06.204Z,98734.56
2022-12-18T14:44:16.461Z,98731.97
2022-12-18T14:46:38.820Z,98734.59
2022-12-18T14:48:51.386Z,98719.81
2022-12-18T14:51:02.588Z,98732.75
2022-12-18T14:53:24.852Z,98732.72
2022-12-18T14:55:33.554Z,98731.00
2022-12-18T14:57:44.483Z,98726.56
2022-12-18T14:59:53.119Z,98736.06
2022-12-18T15:02:09.035Z,98725.56
2022-12-18T15:04:30.052Z,98723.81
2022-12-18T15:06:41.010Z,98725.47
2022-12-18T15:08:51.770Z,98729.81
2022-12-18T15:11:00.440Z,98733.13
2022-12-18T15:13:12.966Z,98731.31
2022-12-18T15:15:51.552Z,98727.91
2022-12-18T15:18:09.435Z,98722.66
2022-12-18T15:20:17.574Z,98726.94
2022-12-18T15:22:31.544Z,98721.66
2022-12-18T15:24:44.457Z,98721.66
2022-12-18T15:26:54.827Z,98718.94
2022-12-18T15:29:04.433Z,98719.81
2022-12-18T15:31:29.812Z,98709.38
2022-12-18T15:33:41.480Z,98708.72
2022-12-18T15:35:49.568Z,98708.63
2022-12-18T15:37:59.034Z,98705.06
2022-12-18T15:40:18.884Z,98704.09
2022-12-18T15:42:40.611Z,98711.97
2022-12-18T15:44:51.966Z,98704.09
2022-12-18T15:47:04.481Z,98710.19
2022-12-18T15:49:12.298Z,98717.16
2022-12-18T15:51:23.996Z,98709.22
2022-12-18T15:53:36.097Z,98715.22
2022-12-18T15:56:10.658Z,98714.41
2022-12-18T15:58:18.732Z,98716.06
2022-12-18T16:00:27.175Z,98707.47
2022-12-18T16:02:36.082Z,98717.81
2022-12-18T16:04:50.101Z,98718.63
2022-12-18T16:07:18.125Z,98712.50
2022-12-18T16:09:29.732Z,98712.44
2022-12-18T16:11:43.246Z,98717.75
2022-12-18T16:13:51.554Z,98713.47
2022-12-18T16:15:59.587Z,98717.81
2022-12-18T16:18:08.066Z,98717.75
2022-12-18T16:20:17.914Z,98715.31
2022-12-18T16:22:28.089Z,98713.56
2022-12-18T16:24:37.758Z,98718.84
2022-12-18T16:26:50.061Z,98714.41
2022-12-18T16:28:58.239Z,98710.13
2022-12-18T16:31:06.074Z,98705.81
2022-12-18T16:33:14.480Z,98703.22
2022-12-18T16:35:30.632Z,98708.38
2022-12-18T16:37:41.009Z,98703.16
2022-12-18T16:39:49.056Z,98704.91
2022-12-18T16:42:00.023Z,98699.69
2022-12-18T16:44:09.688Z,98703.25
2022-12-18T16:46:17.675Z,98706.66
2022-12-18T16:48:28.548Z,98708.34
2022-12-18T16:50:41.180Z,98708.41
2022-12-18T16:52:49.529Z,98717.88
2022-12-18T16:54:58.665Z,98709.38
2022-12-18T16:57:11.632Z,98711.09
2022-12-18T16:59:19.826Z,98708.47
2022-12-18T17:01:30.732Z,98712.03
2022-12-18T17:03:39.121Z,98705.91
2022-12-18T17:05:53.079Z,98701.69
2022-12-18T17:08:02.412Z,98695.53
2022-12-18T17:10:10.987Z,98699.00
2022-12-18T17:12:25.155Z,98699.84
2022-12-18T17:14:33.026Z,98692.00
2022-12-18T17:16:40.791Z,98697.13
2022-12-18T17:18:48.756Z,98696.41
2022-12-18T17:20:56.655Z,98689.47
2022-12-18T17:23:04.555Z,98693.81
2022-12-18T17:25:15.537Z,98693.00
2022-12-18T17:27:25.968Z,98692.94
2022-12-18T17:29:34.335Z,98694.72
2022-12-18T17:31:43.910Z,98686.84
2022-12-18T17:33:52.644Z,98684.28
2022-12-18T17:36:03.584Z,98675.66
2022-12-18T17:38:12.155Z,98682.56
2022-12-18T17:40:20.355Z,98670.41
2022-12-18T17:42:31.121Z,98680.94
2022-12-18T17:44:39.414Z,98681.69
2022-12-18T17:46:48.137Z,98684.22
2022-12-18T17:48:58.709Z,98680.81
2022-12-18T17:51:08.901Z,98684.25
2022-12-18T17:53:16.928Z,98686.84
2022-12-18T17:55:25.926Z,98695.53
2022-12-18T17:57:38.623Z,98690.28
2022-12-18T17:59:46.697Z,98689.38
2022-12-18T18:01:54.977Z,98687.59
2022-12-18T18:04:04.616Z,98691.16
2022-12-18T18:06:13.117Z,98687.66
2022-12-18T18:08:21.378Z,98686.94
2022-12-18T18:10:29.242Z,98691.22
2022-12-18T18:12:54.217Z,98687.75
2022-12-18T18:15:02.325Z,98684.28
2022-12-18T18:17:10.251Z,98677.41
2022-12-18T18:19:20.599Z,98683.47
2022-12-18T18:21:31.744Z,98686.03
2022-12-18T18:23:40.894Z,98688.59
2022-12-18T18:25:57.724Z,98673.91
2022-12-18T18:28:09.006Z,98674.75
2022-12-18T18:30:17.550Z,98675.53
2022-12-18T18:32:27.680Z,98676.56
2022-12-18T18:34:36.922Z,98669.72
2022-12-18T18:36:45.577Z,98677.50
2022-12-18T18:38:53.939Z,98678.44
2022-12-18T18:41:03.091Z,98681.78
2022-12-18T18:43:13.830Z,98681.88
2022-12-18T18:45:22.125Z,98674.88
2022-12-18T18:47:32.611Z,98674.88
2022-12-18T18:49:44.354Z,98669.63
2022-12-18T18:51:53.606Z,98659.28
2022-12-18T18:54:02.727Z,98657.59
2022-12-18T18:58:42.903Z,98679.28
2022-12-18T19:00:58.005Z,98664.50
2022-12-18T19:03:06.943Z,98663.66
2022-12-18T19:05:15.008Z,98680.06
2022-12-18T19:07:30.755Z,98672.22
2022-12-18T19:09:39.111Z,98658.38
2022-12-18T19:11:59.398Z,98663.66
2022-12-18T19:14:13.028Z,98670.53
2022-12-18T19:16:21.402Z,98676.69
2022-12-18T19:18:31.852Z,98680.16
2022-12-18T19:20:42.656Z,98671.53
2022-12-18T19:22:55.991Z,98674.09
2022-12-18T19:25:04.282Z,98662.75
2022-12-18T19:27:12.696Z,98663.72
2022-12-18T19:29:27.548Z,98664.63
2022-12-18T19:31:37.333Z,98669.72
2022-12-18T19:33:49.613Z,98670.69
2022-12-18T19:36:01.191Z,98660.25
2022-12-18T19:38:13.496Z,98659.25
2022-12-18T19:40:22.641Z,98664.56
2022-12-18T19:42:35.354Z,98664.47
2022-12-18T19:44:46.186Z,98651.44
2022-12-18T19:46:59.742Z,98651.41
2022-12-18T19:49:17.370Z,98651.31
2022-12-18T19:51:29.866Z,98647.84
2022-12-18T19:53:39.204Z,98645.22
2022-12-18T19:55:47.351Z,98636.59
2022-12-18T19:57:57.259Z,98642.56
2022-12-18T20:00:15.431Z,98633.16
2022-12-18T20:02:26.448Z,98627.13
2022-12-18T20:04:35.488Z,98628.81
2022-12-18T20:06:51.094Z,98618.44
2022-12-18T20:09:01.779Z,98621.94
2022-12-18T20:11:10.680Z,98616.78
2022-12-18T20:13:18.956Z,98612.44
2022-12-18T20:15:29.495Z,98608.97
2022-12-18T20:17:41.680Z,98606.47
2022-12-18T20:19:53.374Z,98605.59
2022-12-18T20:22:03.800Z,98602.06
2022-12-18T20:24:12.480Z,98602.00
2022-12-18T20:26:20.731Z,98600.31
2022-12-18T20:28:29.320Z,98593.41
2022-12-18T20:30:40.182Z,98583.00
2022-12-18T20:32:48.381Z,98577.78
2022-12-18T20:34:56.279Z,98582.09
2022-12-18T20:37:04.835Z,98574.31
2022-12-18T20:39:13.542Z,98568.22
2022-12-18T20:41:24.679Z,98567.31
2022-12-18T20:43:33.222Z,98563.03
2022-12-18T20:45:43.949Z,98562.13
2022-12-18T20:47:59.740Z,98553.53
2022-12-18T20:50:09.416Z,98550.09
2022-12-18T20:52:17.609Z,98554.38
2022-12-18T20:54:30.080Z,98567.41
2022-12-18T20:56:38.632Z,98571.72
2022-12-18T20:58:47.401Z,98575.31
2022-12-18T21:01:11.439Z,98572.78
2022-12-18T21:03:20.591Z,98572.88
2022-12-18T21:05:29.487Z,98581.47
2022-12-18T21:07:37.570Z,98575.47
2022-12-18T21:09:45.515Z,98571.13
2022-12-18T21:12:05.924Z,98573.81
2022-12-18T21:14:17.543Z,98566.00
2022-12-18T21:16:28.589Z,98547.00
2022-12-18T21:18:36.870Z,98568.59
2022-12-18T21:20:45.284Z,98588.69
2022-12-18T21:22:54.007Z,98594.81
2022-12-18T21:25:05.325Z,98605.25
2022-12-18T21:27:13.124Z,98599.13
2022-12-18T21:29:27.516Z,98594.78
2022-12-18T21:31:39.412Z,98583.50
2022-12-18T21:33:47.279Z,98589.59
2022-12-18T21:35:56.290Z,98594.72
2022-12-18T21:38:05.813Z,98597.34
2022-12-18T21:40:15.138Z,98602.56
2022-12-18T21:42:35.350Z,98598.19
2022-12-18T21:44:43.866Z,98594.72
2022-12-18T21:47:01.555Z,98587.84
2022-12-18T21:49:15.022Z,98595.69
2022-12-18T21:51:22.969Z,98609.47
2022-12-18T21:53:30.817Z,98606.91
2022-12-18T21:55:38.567Z,98593.94
2022-12-18T21:57:46.378Z,98582.69
2022-12-18T21:59:54.423Z,98572.28
2022-12-18T22:02:07.316Z,98566.25
2022-12-18T22:04:15.930Z,98579.19
2022-12-18T22:06:23.760Z,98577.44
2022-12-18T22:08:31.619Z,98557.56
2022-12-18T22:10:40.253Z,98561.88
2022-12-18T22:12:48.935Z,98575.72
2022-12-18T22:14:56.797Z,98565.31
2022-12-18T22:17:07.260Z,98573.16
2022-12-18T22:19:16.631Z,98583.56
2022-12-18T22:21:29.502Z,98571.41
2022-12-18T22:23:37.862Z,98555.84
2022-12-18T22:25:45.835Z,98556.72
2022-12-18T22:28:05.883Z,98555.78
2022-12-18T22:30:15.674Z,98555.78
2022-12-18T22:32:31.361Z,98552.31
2022-12-18T22:34:39.642Z,98552.34
2022-12-18T22:36:49.464Z,98548.88
2022-12-18T22:38:57.458Z,98553.25
2022-12-18T22:41:05.624Z,98546.34
2022-12-18T22:43:14.095Z,98544.59
2022-12-18T22:45:30.039Z,98546.31
2022-12-18T22:47:40.882Z,98546.25
2022-12-18T22:49:48.998Z,98546.25
2022-12-18T22:51:57.539Z,98548.03
2022-12-18T22:54:19.594Z,98538.47
2022-12-18T22:56:33.772Z,98522.88
2022-12-18T22:58:42.211Z,98537.59
2022-12-18T23:00:50.462Z,98541.00
2022-12-18T23:03:01.383Z,98545.38
2022-12-18T23:05:09.955Z,98552.38
2022-12-18T23:07:18.567Z,98551.47
2022-12-18T23:09:26.518Z,98554.06
2022-12-18T23:11:35.919Z,98547.06
2022-12-18T23:13:44.086Z,98560.97
2022-12-18T23:15:51.927Z,98567.06
2022-12-18T23:18:02.988Z,98559.25
2022-12-18T23:20:11.930Z,98568.75
2022-12-18T23:22:20.159Z,98568.81
2022-12-18T23:24:28.453Z,98572.28
2022-12-18T23:26:39.474Z,98569.69
2022-12-18T23:28:47.291Z,98561.97
2022-12-18T23:30:55.708Z,98555.94
2022-12-18T23:33:06.276Z,98557.69
2022-12-18T23:35:15.629Z,98568.09
2022-12-18T23:37:57.002Z,98569.81
2022-12-18T23:39:51.921Z,98562.88
2022-12-18T23:42:00.134Z,98562.00
2022-12-18T23:44:08.290Z,98561.97
2022-12-18T23:46:20.066Z,98556.75
2022-12-18T23:48:30.635Z,98559.41
2022-12-18T23:50:38.605Z,98552.50
2022-12-18T23:52:46.405Z,98555.03
2022-12-18T23:54:56.055Z,98546.41
2022-12-18T23:57:04.465Z,98546.41
2022-12-18T23:59:12.815Z,98552.44
